sensor_id;sensor_type;location;lat;lon;timestamp;temperature;humidity
21267;DHT22;10791;53.108;18.326;2022-11-20T00:03:15;-1.00;99.90
21267;DHT22;10791;53.108;18.326;2022-11-20T00:08:18;-1.00;99.90
21267;DHT22;10791;53.108;18.326;2022-11-20T00:13:22;-1.00;99.90
21267;DHT22;10791;53.108;18.326;2022-11-20T00:18:26;-1.00;99.90
21267;DHT22;10791;53.108;18.326;2022-11-20T00:23:30;-1.00;99.90
21267;DHT22;10791;53.108;18.326;2022-11-20T00:28:34;-1.00;99.90
21267;DHT22;10791;53.108;18.326;2022-11-20T00:33:38;-1.00;99.90
21267;DHT22;10791;53.108;18.326;2022-11-20T00:38:42;-1.00;99.90
21267;DHT22;10791;53.108;18.326;2022-11-20T00:43:45;-1.00;99.90
21267;DHT22;10791;53.108;18.326;2022-11-20T00:48:48;-1.00;99.90
21267;DHT22;10791;53.108;18.326;2022-11-20T00:53:55;-1.00;99.90
21267;DHT22;10791;53.108;18.326;2022-11-20T00:59:00;-0.90;99.90
21267;DHT22;10791;53.108;18.326;2022-11-20T01:04:04;-1.00;99.90
21267;DHT22;10791;53.108;18.326;2022-11-20T01:09:11;-1.00;99.90
21267;DHT22;10791;53.108;18.326;2022-11-20T01:14:17;-1.00;99.90
21267;DHT22;10791;53.108;18.326;2022-11-20T01:19:23;-0.90;99.90
21267;DHT22;10791;53.108;18.326;2022-11-20T01:24:27;-1.00;99.90
21267;DHT22;10791;53.108;18.326;2022-11-20T01:29:30;-1.00;99.90
21267;DHT22;10791;53.108;18.326;2022-11-20T01:34:34;-1.00;99.90
21267;DHT22;10791;53.108;18.326;2022-11-20T01:39:37;-1.00;99.90
21267;DHT22;10791;53.108;18.326;2022-11-20T01:44:59;-0.90;99.90
21267;DHT22;10791;53.108;18.326;2022-11-20T01:50:21;-0.90;99.90
21267;DHT22;10791;53.108;18.326;2022-11-20T01:55:31;-1.00;99.90
21267;DHT22;10791;53.108;18.326;2022-11-20T02:00:35;-1.00;99.90
21267;DHT22;10791;53.108;18.326;2022-11-20T02:11:21;-1.00;99.90
21267;DHT22;10791;53.108;18.326;2022-11-20T02:16:34;-0.90;99.90
21267;DHT22;10791;53.108;18.326;2022-11-20T02:22:12;-1.00;99.90
21267;DHT22;10791;53.108;18.326;2022-11-20T02:27:18;-1.00;99.90
21267;DHT22;10791;53.108;18.326;2022-11-20T02:32:24;-0.90;99.90
21267;DHT22;10791;53.108;18.326;2022-11-20T02:37:32;-1.00;99.90
21267;DHT22;10791;53.108;18.326;2022-11-20T02:42:37;-0.90;99.90
21267;DHT22;10791;53.108;18.326;2022-11-20T02:47:40;-0.90;99.90
21267;DHT22;10791;53.108;18.326;2022-11-20T02:52:44;-0.90;99.90
21267;DHT22;10791;53.108;18.326;2022-11-20T02:57:47;-0.90;99.90
21267;DHT22;10791;53.108;18.326;2022-11-20T03:02:51;-0.90;99.90
21267;DHT22;10791;53.108;18.326;2022-11-20T03:07:54;-0.90;99.90
21267;DHT22;10791;53.108;18.326;2022-11-20T03:12:58;-0.90;99.90
21267;DHT22;10791;53.108;18.326;2022-11-20T03:18:01;-1.00;99.90
21267;DHT22;10791;53.108;18.326;2022-11-20T03:23:05;-1.00;99.90
21267;DHT22;10791;53.108;18.326;2022-11-20T03:28:08;-1.00;99.90
21267;DHT22;10791;53.108;18.326;2022-11-20T03:33:12;-1.00;99.90
21267;DHT22;10791;53.108;18.326;2022-11-20T03:38:15;-1.00;99.90
21267;DHT22;10791;53.108;18.326;2022-11-20T03:43:19;-1.00;99.90
21267;DHT22;10791;53.108;18.326;2022-11-20T03:48:22;-1.00;99.90
21267;DHT22;10791;53.108;18.326;2022-11-20T03:53:26;-1.00;99.90
21267;DHT22;10791;53.108;18.326;2022-11-20T03:58:30;-1.00;99.90
21267;DHT22;10791;53.108;18.326;2022-11-20T04:03:34;-1.00;99.90
21267;DHT22;10791;53.108;18.326;2022-11-20T04:08:38;-1.00;99.90
21267;DHT22;10791;53.108;18.326;2022-11-20T04:13:45;-1.10;99.90
21267;DHT22;10791;53.108;18.326;2022-11-20T04:18:53;-1.10;99.90
21267;DHT22;10791;53.108;18.326;2022-11-20T04:23:57;-1.10;99.90
21267;DHT22;10791;53.108;18.326;2022-11-20T04:29:01;-1.10;99.90
21267;DHT22;10791;53.108;18.326;2022-11-20T04:34:07;-1.10;99.90
21267;DHT22;10791;53.108;18.326;2022-11-20T04:39:14;-1.10;99.90
21267;DHT22;10791;53.108;18.326;2022-11-20T04:44:19;-1.10;99.90
21267;DHT22;10791;53.108;18.326;2022-11-20T04:49:22;-1.10;99.90
21267;DHT22;10791;53.108;18.326;2022-11-20T04:54:26;-1.10;99.90
21267;DHT22;10791;53.108;18.326;2022-11-20T04:59:30;-1.10;99.90
21267;DHT22;10791;53.108;18.326;2022-11-20T05:04:51;-1.00;99.90
21267;DHT22;10791;53.108;18.326;2022-11-20T05:09:54;-1.10;99.90
21267;DHT22;10791;53.108;18.326;2022-11-20T05:14:58;-1.10;99.90
21267;DHT22;10791;53.108;18.326;2022-11-20T05:20:01;-1.10;99.90
21267;DHT22;10791;53.108;18.326;2022-11-20T05:25:05;-1.10;99.90
21267;DHT22;10791;53.108;18.326;2022-11-20T05:30:09;-1.10;99.90
21267;DHT22;10791;53.108;18.326;2022-11-20T05:35:12;-1.10;99.90
21267;DHT22;10791;53.108;18.326;2022-11-20T05:40:16;-1.10;99.90
21267;DHT22;10791;53.108;18.326;2022-11-20T05:45:19;-1.10;99.90
21267;DHT22;10791;53.108;18.326;2022-11-20T05:50:23;-1.10;99.90
21267;DHT22;10791;53.108;18.326;2022-11-20T05:55:26;-1.10;99.90
21267;DHT22;10791;53.108;18.326;2022-11-20T06:00:31;-1.10;99.90
21267;DHT22;10791;53.108;18.326;2022-11-20T06:05:34;-1.10;99.90
21267;DHT22;10791;53.108;18.326;2022-11-20T06:10:37;-1.10;99.90
21267;DHT22;10791;53.108;18.326;2022-11-20T06:15:40;-1.10;99.90
21267;DHT22;10791;53.108;18.326;2022-11-20T06:20:45;-1.10;99.90
21267;DHT22;10791;53.108;18.326;2022-11-20T06:25:48;-1.10;99.90
21267;DHT22;10791;53.108;18.326;2022-11-20T06:30:52;-1.10;99.90
21267;DHT22;10791;53.108;18.326;2022-11-20T06:36:02;-1.10;99.90
21267;DHT22;10791;53.108;18.326;2022-11-20T06:41:14;-1.10;99.90
21267;DHT22;10791;53.108;18.326;2022-11-20T06:46:19;-1.10;99.90
21267;DHT22;10791;53.108;18.326;2022-11-20T06:51:22;-1.10;99.90
21267;DHT22;10791;53.108;18.326;2022-11-20T06:56:26;-1.00;99.90
21267;DHT22;10791;53.108;18.326;2022-11-20T07:01:30;-1.10;99.90
21267;DHT22;10791;53.108;18.326;2022-11-20T07:06:33;-1.00;99.90
21267;DHT22;10791;53.108;18.326;2022-11-20T07:11:37;-1.00;99.90
21267;DHT22;10791;53.108;18.326;2022-11-20T07:16:40;-1.00;99.90
21267;DHT22;10791;53.108;18.326;2022-11-20T07:21:43;-1.00;99.90
21267;DHT22;10791;53.108;18.326;2022-11-20T07:26:47;-0.90;99.90
21267;DHT22;10791;53.108;18.326;2022-11-20T07:31:52;-0.90;99.90
21267;DHT22;10791;53.108;18.326;2022-11-20T07:36:59;-0.90;99.90
21267;DHT22;10791;53.108;18.326;2022-11-20T07:42:07;-0.90;99.90
21267;DHT22;10791;53.108;18.326;2022-11-20T07:47:11;-0.80;99.90
21267;DHT22;10791;53.108;18.326;2022-11-20T07:52:14;-0.70;99.90
21267;DHT22;10791;53.108;18.326;2022-11-20T07:57:17;-0.70;99.90
21267;DHT22;10791;53.108;18.326;2022-11-20T08:02:25;-0.70;99.90
21267;DHT22;10791;53.108;18.326;2022-11-20T08:07:29;-0.70;99.90
21267;DHT22;10791;53.108;18.326;2022-11-20T08:12:33;-0.70;99.90
21267;DHT22;10791;53.108;18.326;2022-11-20T08:18:09;-0.60;99.90
21267;DHT22;10791;53.108;18.326;2022-11-20T08:23:33;-0.50;99.90
21267;DHT22;10791;53.108;18.326;2022-11-20T08:28:36;-0.50;99.90
21267;DHT22;10791;53.108;18.326;2022-11-20T08:33:40;-0.50;99.90
21267;DHT22;10791;53.108;18.326;2022-11-20T08:38:47;-0.40;99.90
21267;DHT22;10791;53.108;18.326;2022-11-20T08:43:56;-0.30;99.90
21267;DHT22;10791;53.108;18.326;2022-11-20T08:48:59;-0.20;99.90
21267;DHT22;10791;53.108;18.326;2022-11-20T08:54:05;-0.10;99.90
21267;DHT22;10791;53.108;18.326;2022-11-20T08:59:14;0.00;99.90
21267;DHT22;10791;53.108;18.326;2022-11-20T09:05:18;0.00;99.90
21267;DHT22;10791;53.108;18.326;2022-11-20T09:10:21;0.00;99.90
21267;DHT22;10791;53.108;18.326;2022-11-20T09:15:26;0.00;99.90
21267;DHT22;10791;53.108;18.326;2022-11-20T09:20:41;-0.10;99.90
21267;DHT22;10791;53.108;18.326;2022-11-20T09:26:08;0.00;99.90
21267;DHT22;10791;53.108;18.326;2022-11-20T09:31:33;0.10;99.90
21267;DHT22;10791;53.108;18.326;2022-11-20T09:37:17;0.20;99.90
21267;DHT22;10791;53.108;18.326;2022-11-20T09:48:30;0.10;99.90
21267;DHT22;10791;53.108;18.326;2022-11-20T09:53:54;0.20;99.90
21267;DHT22;10791;53.108;18.326;2022-11-20T09:59:03;0.30;99.90
21267;DHT22;10791;53.108;18.326;2022-11-20T10:09:51;0.40;99.90
21267;DHT22;10791;53.108;18.326;2022-11-20T10:15:09;0.30;99.90
21267;DHT22;10791;53.108;18.326;2022-11-20T10:20:28;0.20;99.90
21267;DHT22;10791;53.108;18.326;2022-11-20T10:25:43;0.20;99.90
21267;DHT22;10791;53.108;18.326;2022-11-20T10:30:55;0.30;99.90
21267;DHT22;10791;53.108;18.326;2022-11-20T10:36:19;0.40;99.90
21267;DHT22;10791;53.108;18.326;2022-11-20T10:41:37;0.60;99.90
21267;DHT22;10791;53.108;18.326;2022-11-20T10:46:44;0.50;99.90
21267;DHT22;10791;53.108;18.326;2022-11-20T10:52:00;0.40;99.90
21267;DHT22;10791;53.108;18.326;2022-11-20T10:57:18;0.40;99.90
21267;DHT22;10791;53.108;18.326;2022-11-20T11:02:31;0.30;99.90
21267;DHT22;10791;53.108;18.326;2022-11-20T11:07:39;0.30;99.90
21267;DHT22;10791;53.108;18.326;2022-11-20T11:12:47;0.30;99.90
21267;DHT22;10791;53.108;18.326;2022-11-20T11:17:51;0.20;99.90
21267;DHT22;10791;53.108;18.326;2022-11-20T11:22:59;0.30;99.90
21267;DHT22;10791;53.108;18.326;2022-11-20T11:28:04;0.30;99.90
21267;DHT22;10791;53.108;18.326;2022-11-20T11:33:28;0.40;99.90
21267;DHT22;10791;53.108;18.326;2022-11-20T11:38:42;0.30;99.90
21267;DHT22;10791;53.108;18.326;2022-11-20T11:43:55;0.30;99.90
21267;DHT22;10791;53.108;18.326;2022-11-20T11:49:19;0.20;99.90
21267;DHT22;10791;53.108;18.326;2022-11-20T11:54:30;0.20;99.90
21267;DHT22;10791;53.108;18.326;2022-11-20T12:05:03;0.10;99.90
21267;DHT22;10791;53.108;18.326;2022-11-20T12:15:47;0.20;99.90
21267;DHT22;10791;53.108;18.326;2022-11-20T12:21:19;0.20;99.90
21267;DHT22;10791;53.108;18.326;2022-11-20T12:42:39;0.60;99.90
21267;DHT22;10791;53.108;18.326;2022-11-20T12:54:25;0.70;99.90
21267;DHT22;10791;53.108;18.326;2022-11-20T13:00:00;0.70;99.90
21267;DHT22;10791;53.108;18.326;2022-11-20T13:05:17;0.70;99.90
21267;DHT22;10791;53.108;18.326;2022-11-20T13:10:33;0.80;99.90
21267;DHT22;10791;53.108;18.326;2022-11-20T13:15:50;0.80;99.90
21267;DHT22;10791;53.108;18.326;2022-11-20T13:20:55;0.80;99.90
21267;DHT22;10791;53.108;18.326;2022-11-20T13:26:22;0.70;99.90
21267;DHT22;10791;53.108;18.326;2022-11-20T13:31:36;0.70;99.90
21267;DHT22;10791;53.108;18.326;2022-11-20T13:36:52;0.60;99.90
21267;DHT22;10791;53.108;18.326;2022-11-20T13:41:59;0.60;99.90
21267;DHT22;10791;53.108;18.326;2022-11-20T13:47:24;0.60;99.90
21267;DHT22;10791;53.108;18.326;2022-11-20T14:03:34;0.50;99.90
21267;DHT22;10791;53.108;18.326;2022-11-20T14:08:59;0.40;99.90
21267;DHT22;10791;53.108;18.326;2022-11-20T14:14:15;0.40;99.90
21267;DHT22;10791;53.108;18.326;2022-11-20T14:19:29;0.30;99.90
21267;DHT22;10791;53.108;18.326;2022-11-20T14:24:36;0.30;99.90
21267;DHT22;10791;53.108;18.326;2022-11-20T14:29:41;0.30;99.90
21267;DHT22;10791;53.108;18.326;2022-11-20T14:34:49;0.30;99.90
21267;DHT22;10791;53.108;18.326;2022-11-20T14:39:56;0.20;99.90
21267;DHT22;10791;53.108;18.326;2022-11-20T14:45:03;0.20;99.90
21267;DHT22;10791;53.108;18.326;2022-11-20T14:50:25;0.20;99.90
21267;DHT22;10791;53.108;18.326;2022-11-20T14:55:38;0.20;99.90
21267;DHT22;10791;53.108;18.326;2022-11-20T15:01:05;0.20;99.90
21267;DHT22;10791;53.108;18.326;2022-11-20T15:06:12;0.10;99.90
21267;DHT22;10791;53.108;18.326;2022-11-20T15:11:29;0.10;99.90
21267;DHT22;10791;53.108;18.326;2022-11-20T15:16:33;0.10;99.90
21267;DHT22;10791;53.108;18.326;2022-11-20T15:21:38;0.10;99.90
21267;DHT22;10791;53.108;18.326;2022-11-20T15:26:42;0.10;99.90
21267;DHT22;10791;53.108;18.326;2022-11-20T15:31:48;0.00;99.90
21267;DHT22;10791;53.108;18.326;2022-11-20T15:36:59;0.00;99.90
21267;DHT22;10791;53.108;18.326;2022-11-20T15:42:04;-0.10;99.90
21267;DHT22;10791;53.108;18.326;2022-11-20T15:47:11;-0.10;99.90
21267;DHT22;10791;53.108;18.326;2022-11-20T15:52:16;-0.10;99.90
21267;DHT22;10791;53.108;18.326;2022-11-20T15:57:21;-0.20;99.90
21267;DHT22;10791;53.108;18.326;2022-11-20T16:02:24;-0.10;99.90
21267;DHT22;10791;53.108;18.326;2022-11-20T16:07:31;-0.10;99.90
21267;DHT22;10791;53.108;18.326;2022-11-20T16:12:35;-0.20;99.90
21267;DHT22;10791;53.108;18.326;2022-11-20T16:18:02;-0.20;99.90
21267;DHT22;10791;53.108;18.326;2022-11-20T16:23:06;-0.20;99.90
21267;DHT22;10791;53.108;18.326;2022-11-20T16:28:12;-0.20;99.90
21267;DHT22;10791;53.108;18.326;2022-11-20T16:33:21;-0.20;99.90
21267;DHT22;10791;53.108;18.326;2022-11-20T16:38:26;-0.20;99.90
21267;DHT22;10791;53.108;18.326;2022-11-20T16:43:31;-0.20;99.90
21267;DHT22;10791;53.108;18.326;2022-11-20T16:48:38;-0.20;99.90
21267;DHT22;10791;53.108;18.326;2022-11-20T16:53:41;-0.30;99.90
21267;DHT22;10791;53.108;18.326;2022-11-20T16:58:48;-0.30;99.90
21267;DHT22;10791;53.108;18.326;2022-11-20T17:04:01;-0.30;99.90
21267;DHT22;10791;53.108;18.326;2022-11-20T17:09:06;-0.20;99.90
21267;DHT22;10791;53.108;18.326;2022-11-20T17:14:15;-0.20;99.90
21267;DHT22;10791;53.108;18.326;2022-11-20T17:19:20;-0.20;99.90
21267;DHT22;10791;53.108;18.326;2022-11-20T17:24:24;-0.30;99.90
21267;DHT22;10791;53.108;18.326;2022-11-20T17:29:37;-0.30;99.90
21267;DHT22;10791;53.108;18.326;2022-11-20T17:34:44;-0.30;99.90
21267;DHT22;10791;53.108;18.326;2022-11-20T17:39:49;-0.30;99.90
21267;DHT22;10791;53.108;18.326;2022-11-20T17:44:55;-0.30;99.90
21267;DHT22;10791;53.108;18.326;2022-11-20T17:50:03;-0.40;99.90
21267;DHT22;10791;53.108;18.326;2022-11-20T17:55:08;-0.40;99.90
21267;DHT22;10791;53.108;18.326;2022-11-20T18:00:14;-0.40;99.90
21267;DHT22;10791;53.108;18.326;2022-11-20T18:05:19;-0.40;99.90
21267;DHT22;10791;53.108;18.326;2022-11-20T18:10:24;-0.40;99.90
21267;DHT22;10791;53.108;18.326;2022-11-20T18:15:28;-0.40;99.90
21267;DHT22;10791;53.108;18.326;2022-11-20T18:20:38;-0.40;99.90
21267;DHT22;10791;53.108;18.326;2022-11-20T18:25:42;-0.40;99.90
21267;DHT22;10791;53.108;18.326;2022-11-20T18:30:50;-0.40;99.90
21267;DHT22;10791;53.108;18.326;2022-11-20T18:35:54;-0.50;99.90
21267;DHT22;10791;53.108;18.326;2022-11-20T18:40:58;-0.50;99.90
21267;DHT22;10791;53.108;18.326;2022-11-20T18:46:09;-0.60;99.90
21267;DHT22;10791;53.108;18.326;2022-11-20T18:51:13;-0.60;99.90
21267;DHT22;10791;53.108;18.326;2022-11-20T18:56:22;-0.60;99.90
21267;DHT22;10791;53.108;18.326;2022-11-20T19:01:27;-0.60;99.90
21267;DHT22;10791;53.108;18.326;2022-11-20T19:06:34;-0.60;99.90
21267;DHT22;10791;53.108;18.326;2022-11-20T19:11:42;-0.60;99.90
21267;DHT22;10791;53.108;18.326;2022-11-20T19:16:47;-0.60;99.90
21267;DHT22;10791;53.108;18.326;2022-11-20T19:21:52;-0.60;99.90
21267;DHT22;10791;53.108;18.326;2022-11-20T19:26:58;-0.50;99.90
21267;DHT22;10791;53.108;18.326;2022-11-20T19:32:04;-0.50;99.90
21267;DHT22;10791;53.108;18.326;2022-11-20T19:37:16;-0.50;99.90
21267;DHT22;10791;53.108;18.326;2022-11-20T19:42:21;-0.50;99.90
21267;DHT22;10791;53.108;18.326;2022-11-20T19:47:32;-0.50;99.90
21267;DHT22;10791;53.108;18.326;2022-11-20T19:52:58;-0.40;99.90
21267;DHT22;10791;53.108;18.326;2022-11-20T19:58:04;-0.40;99.90
21267;DHT22;10791;53.108;18.326;2022-11-20T20:03:10;-0.40;99.90
21267;DHT22;10791;53.108;18.326;2022-11-20T20:08:18;-0.40;99.90
21267;DHT22;10791;53.108;18.326;2022-11-20T20:13:24;-0.50;99.90
21267;DHT22;10791;53.108;18.326;2022-11-20T20:18:32;-0.50;99.90
21267;DHT22;10791;53.108;18.326;2022-11-20T20:23:37;-0.40;99.90
21267;DHT22;10791;53.108;18.326;2022-11-20T20:28:41;-0.50;99.90
21267;DHT22;10791;53.108;18.326;2022-11-20T20:33:46;-0.50;99.90
21267;DHT22;10791;53.108;18.326;2022-11-20T20:38:53;-0.50;99.90
21267;DHT22;10791;53.108;18.326;2022-11-20T20:43:57;-0.40;99.90
21267;DHT22;10791;53.108;18.326;2022-11-20T20:49:21;-0.40;99.90
21267;DHT22;10791;53.108;18.326;2022-11-20T20:54:28;-0.40;99.90
21267;DHT22;10791;53.108;18.326;2022-11-20T20:59:38;-0.40;99.90
21267;DHT22;10791;53.108;18.326;2022-11-20T21:04:54;-0.50;99.90
21267;DHT22;10791;53.108;18.326;2022-11-20T21:09:58;-0.50;99.90
21267;DHT22;10791;53.108;18.326;2022-11-20T21:15:03;-0.50;99.90
21267;DHT22;10791;53.108;18.326;2022-11-20T21:20:07;-0.50;99.90
21267;DHT22;10791;53.108;18.326;2022-11-20T21:25:36;-0.40;99.90
21267;DHT22;10791;53.108;18.326;2022-11-20T21:30:41;-0.50;99.90
21267;DHT22;10791;53.108;18.326;2022-11-20T21:35:46;-0.50;99.90
21267;DHT22;10791;53.108;18.326;2022-11-20T21:40:51;-0.60;99.90
21267;DHT22;10791;53.108;18.326;2022-11-20T21:46:03;-0.60;99.90
21267;DHT22;10791;53.108;18.326;2022-11-20T21:51:19;-0.60;99.90
21267;DHT22;10791;53.108;18.326;2022-11-20T21:56:24;-0.60;99.90
21267;DHT22;10791;53.108;18.326;2022-11-20T22:01:29;-0.60;99.90
21267;DHT22;10791;53.108;18.326;2022-11-20T22:06:34;-0.60;99.90
21267;DHT22;10791;53.108;18.326;2022-11-20T22:11:37;-0.70;99.90
21267;DHT22;10791;53.108;18.326;2022-11-20T22:16:40;-0.70;99.90
21267;DHT22;10791;53.108;18.326;2022-11-20T22:21:44;-0.80;99.90
21267;DHT22;10791;53.108;18.326;2022-11-20T22:26:48;-0.90;99.90
21267;DHT22;10791;53.108;18.326;2022-11-20T22:31:52;-1.00;99.90
21267;DHT22;10791;53.108;18.326;2022-11-20T22:36:55;-1.10;99.90
21267;DHT22;10791;53.108;18.326;2022-11-20T22:41:58;-1.10;99.90
21267;DHT22;10791;53.108;18.326;2022-11-20T22:47:02;-1.00;99.90
21267;DHT22;10791;53.108;18.326;2022-11-20T22:52:12;-1.00;99.90
21267;DHT22;10791;53.108;18.326;2022-11-20T22:57:15;-1.00;99.90
21267;DHT22;10791;53.108;18.326;2022-11-20T23:02:19;-0.90;99.90
21267;DHT22;10791;53.108;18.326;2022-11-20T23:07:22;-0.90;99.90
21267;DHT22;10791;53.108;18.326;2022-11-20T23:12:25;-1.00;99.90
21267;DHT22;10791;53.108;18.326;2022-11-20T23:17:29;-1.00;99.90
21267;DHT22;10791;53.108;18.326;2022-11-20T23:22:32;-1.10;99.90
21267;DHT22;10791;53.108;18.326;2022-11-20T23:27:35;-1.20;99.90
21267;DHT22;10791;53.108;18.326;2022-11-20T23:32:39;-1.40;99.90
21267;DHT22;10791;53.108;18.326;2022-11-20T23:37:45;-1.50;99.90
21267;DHT22;10791;53.108;18.326;2022-11-20T23:42:48;-1.60;99.90
21267;DHT22;10791;53.108;18.326;2022-11-20T23:48:10;-1.60;99.90
21267;DHT22;10791;53.108;18.326;2022-11-20T23:53:14;-1.60;99.90
21267;DHT22;10791;53.108;18.326;2022-11-20T23:58:19;-1.60;99.90
